createdAt,value
2017-05-13T00:00:28.962Z,1001.8
2017-05-13T00:01:39.201Z,1001.8
2017-05-13T00:02:49.434Z,1001.8
2017-05-13T00:03:59.367Z,1001.8
2017-05-13T00:05:09.283Z,1001.83
2017-05-13T00:06:19.456Z,1001.83
2017-05-13T00:07:29.082Z,1001.85
2017-05-13T00:08:39.000Z,1001.86
2017-05-13T00:09:49.237Z,1001.86
2017-05-13T00:10:58.907Z,1001.88
2017-05-13T00:12:08.996Z,1001.86
2017-05-13T00:13:18.925Z,1001.88
2017-05-13T00:14:28.829Z,1001.89
2017-05-13T00:15:38.440Z,1001.9
2017-05-13T00:16:48.682Z,1001.9
2017-05-13T00:17:58.597Z,1001.9
2017-05-13T00:19:08.208Z,1001.9
2017-05-13T00:20:18.177Z,1001.89
2017-05-13T00:21:28.465Z,1001.87
2017-05-13T00:22:38.385Z,1001.88
2017-05-13T00:23:48.296Z,1001.89
2017-05-13T00:24:57.919Z,1001.86
2017-05-13T00:26:08.148Z,1001.85
2017-05-13T00:27:18.372Z,1001.82
2017-05-13T00:28:27.975Z,1001.87
2017-05-13T00:29:37.530Z,1001.87
2017-05-13T00:30:47.447Z,1001.86
2017-05-13T00:31:57.673Z,1001.85
2017-05-13T00:33:06.998Z,1001.85
2017-05-13T00:34:17.228Z,1001.86
2017-05-13T00:35:27.179Z,1001.85
2017-05-13T00:36:37.408Z,1001.89
2017-05-13T00:37:47.035Z,1001.88
2017-05-13T00:38:57.270Z,1001.9
2017-05-13T00:40:07.488Z,1001.89
2017-05-13T00:41:17.206Z,1001.85
2017-05-13T00:42:27.494Z,1001.88
2017-05-13T00:43:37.733Z,1001.84
2017-05-13T00:44:47.955Z,1001.88
2017-05-13T00:45:57.880Z,1001.88
2017-05-13T00:47:07.857Z,1001.89
2017-05-13T00:48:18.079Z,1001.94
2017-05-13T00:49:27.995Z,1001.91
2017-05-13T00:50:37.901Z,1001.89
2017-05-13T00:51:48.122Z,1001.86
2017-05-13T00:52:58.188Z,1001.89
2017-05-13T00:54:08.414Z,1001.85
2017-05-13T00:55:18.329Z,1001.87
2017-05-13T00:56:28.550Z,1001.88
2017-05-13T00:57:38.475Z,1001.92
2017-05-13T00:58:48.543Z,1001.89
2017-05-13T00:59:58.459Z,1001.9
2017-05-13T01:01:08.070Z,1001.88
2017-05-13T01:02:18.010Z,1001.91
2017-05-13T01:03:27.942Z,1001.92
2017-05-13T01:04:37.394Z,1001.9
2017-05-13T01:05:47.641Z,1001.88
2017-05-13T01:06:57.560Z,1001.9
2017-05-13T01:08:07.493Z,1001.92
2017-05-13T01:09:17.110Z,1001.92
2017-05-13T01:10:27.483Z,1001.91
2017-05-13T01:11:37.086Z,1001.92
2017-05-13T01:12:47.005Z,1001.92
2017-05-13T01:13:56.619Z,1001.9
2017-05-13T01:15:06.533Z,1001.93
2017-05-13T01:16:16.758Z,1001.86
2017-05-13T01:17:26.684Z,1001.89
2017-05-13T01:18:36.911Z,1001.88
2017-05-13T01:19:46.838Z,1001.89
2017-05-13T01:20:56.766Z,1001.87
2017-05-13T01:22:06.410Z,1001.93
2017-05-13T01:25:48.385Z,1001.86
2017-05-13T01:26:57.993Z,1001.87
2017-05-13T01:28:08.530Z,1001.86
2017-05-13T01:29:18.451Z,1001.84
2017-05-13T01:30:28.674Z,1001.79
2017-05-13T01:31:38.923Z,1001.84
2017-05-13T01:32:49.392Z,1001.85
2017-05-13T01:33:58.701Z,1001.89
2017-05-13T01:35:08.604Z,1001.9
2017-05-13T01:36:18.516Z,1001.93
2017-05-13T01:37:28.442Z,1001.9
2017-05-13T01:38:38.766Z,1001.92
2017-05-13T01:39:48.690Z,1001.94
2017-05-13T01:40:58.300Z,1001.99
2017-05-13T01:42:08.215Z,1002.03
2017-05-13T01:43:18.138Z,1002.03
2017-05-13T01:44:27.761Z,1002.06
2017-05-13T01:45:37.688Z,1002.06
2017-05-13T01:46:47.288Z,1002.13
2017-05-13T01:47:56.899Z,1002.17
2017-05-13T01:49:07.135Z,1002.17
2017-05-13T01:50:17.220Z,1002.16
2017-05-13T01:51:27.144Z,1002.25
2017-05-13T01:52:36.801Z,1002.22
2017-05-13T01:53:46.423Z,1002.26
2017-05-13T01:54:56.332Z,1002.28
2017-05-13T01:56:06.818Z,1002.3
2017-05-13T01:57:16.739Z,1002.3
2017-05-13T01:58:26.046Z,1002.34
2017-05-13T01:59:35.955Z,1002.33
2017-05-13T02:00:45.924Z,1002.31
2017-05-13T02:01:56.149Z,1002.29
2017-05-13T02:03:05.768Z,1002.32
2017-05-13T02:04:15.066Z,1002.35
2017-05-13T02:05:25.335Z,1002.35
2017-05-13T02:06:35.566Z,1002.36
2017-05-13T02:07:45.499Z,1002.34
2017-05-13T02:08:55.424Z,1002.35
2017-05-13T02:10:05.649Z,1002.39
2017-05-13T02:11:15.893Z,1002.35
2017-05-13T02:12:26.495Z,1002.4
2017-05-13T02:13:36.781Z,1002.38
2017-05-13T02:14:46.390Z,1002.37
2017-05-13T02:15:56.020Z,1002.36
2017-05-13T02:17:05.640Z,1002.34
2017-05-13T02:18:15.256Z,1002.37
2017-05-13T02:19:25.473Z,1002.31
2017-05-13T02:20:35.109Z,1002.3
2017-05-13T02:21:45.341Z,1002.31
2017-05-13T02:22:54.964Z,1002.33
2017-05-13T02:24:05.268Z,1002.31
2017-05-13T02:25:15.429Z,1002.36
2017-05-13T02:26:24.725Z,1002.42
2017-05-13T02:27:34.961Z,1002.4
2017-05-13T02:28:44.590Z,1002.39
2017-05-13T02:29:54.203Z,1002.38
2017-05-13T02:31:03.603Z,1002.39
2017-05-13T02:32:13.529Z,1002.41
2017-05-13T02:33:23.443Z,1002.38
2017-05-13T02:34:33.357Z,1002.39
2017-05-13T02:35:43.591Z,1002.38
2017-05-13T02:36:53.761Z,1002.35
2017-05-13T02:38:03.686Z,1002.37
2017-05-13T02:39:13.352Z,1002.31
2017-05-13T02:40:23.273Z,1002.27
2017-05-13T02:41:33.499Z,1002.29
2017-05-13T02:42:43.974Z,1002.24
2017-05-13T02:43:53.593Z,1002.25
2017-05-13T02:45:03.829Z,1002.28
2017-05-13T02:46:13.442Z,1002.32
2017-05-13T02:47:23.059Z,1002.41
2017-05-13T02:48:33.279Z,1002.44
2017-05-13T02:49:43.529Z,1002.44
2017-05-13T02:50:53.769Z,1002.45
2017-05-13T02:52:04.004Z,1002.51
2017-05-13T02:53:13.954Z,1002.57
2017-05-13T02:54:24.184Z,1002.63
2017-05-13T02:55:33.795Z,1002.7
2017-05-13T02:56:43.451Z,1002.73
2017-05-13T02:57:53.677Z,1002.77
2017-05-13T02:59:03.615Z,1002.78
2017-05-13T03:00:13.071Z,1002.8
2017-05-13T03:01:22.679Z,1002.79
2017-05-13T03:02:32.633Z,1002.78
2017-05-13T03:03:42.557Z,1002.82
2017-05-13T03:04:52.476Z,1002.83
2017-05-13T03:06:02.024Z,1002.81
2017-05-13T03:07:11.985Z,1002.77
2017-05-13T03:08:21.904Z,1002.82
2017-05-13T03:09:31.820Z,1002.83
2017-05-13T03:10:41.746Z,1002.83
2017-05-13T03:11:52.280Z,1002.81
2017-05-13T03:13:02.875Z,1002.8
2017-05-13T03:14:12.703Z,1002.79
2017-05-13T03:15:22.935Z,1002.81
2017-05-13T03:16:32.857Z,1002.83
2017-05-13T03:17:42.928Z,1002.82
2017-05-13T03:18:52.844Z,1002.85
2017-05-13T03:20:02.753Z,1002.86
2017-05-13T03:21:12.660Z,1002.9
2017-05-13T03:22:22.265Z,1002.91
2017-05-13T03:23:32.644Z,1002.88
2017-05-13T03:24:42.576Z,1002.9
2017-05-13T03:25:52.804Z,1002.89
2017-05-13T03:27:02.722Z,1002.89
2017-05-13T03:28:12.944Z,1002.92
2017-05-13T03:29:23.518Z,1002.89
2017-05-13T03:30:33.747Z,1002.97
2017-05-13T03:31:43.668Z,1002.96
2017-05-13T03:32:53.580Z,1002.97
2017-05-13T03:34:03.190Z,1003.01
2017-05-13T03:35:13.097Z,1003.02
2017-05-13T03:36:22.396Z,1003.04
2017-05-13T03:37:32.310Z,1003.06
2017-05-13T03:38:42.538Z,1003.12
2017-05-13T03:39:52.462Z,1003.09
2017-05-13T03:41:02.936Z,1003.07
2017-05-13T03:42:12.852Z,1003.04
2017-05-13T03:43:22.766Z,1003.03
2017-05-13T03:44:32.384Z,1003.03
2017-05-13T03:45:41.997Z,1003.07
2017-05-13T03:46:52.060Z,1003.07
2017-05-13T03:48:01.370Z,1003.07
2017-05-13T03:49:10.983Z,1003.07
2017-05-13T03:50:20.906Z,1003.12
2017-05-13T03:51:30.818Z,1003.1
2017-05-13T03:52:41.029Z,1003.11
2017-05-13T03:53:51.271Z,1003.1
2017-05-13T03:55:01.495Z,1003.12
2017-05-13T03:56:11.107Z,1003.11
2017-05-13T03:57:21.352Z,1003.08
2017-05-13T03:58:30.805Z,1003.12
2017-05-13T03:59:40.717Z,1003.14
2017-05-13T04:00:50.625Z,1003.13
2017-05-13T04:02:00.865Z,1003.15
2017-05-13T04:03:10.791Z,1003.14
2017-05-13T04:04:20.873Z,1003.17
2017-05-13T04:05:30.789Z,1003.17
2017-05-13T04:06:41.015Z,1003.19
2017-05-13T04:07:50.935Z,1003.17
2017-05-13T04:09:01.178Z,1003.18
2017-05-13T04:10:11.592Z,1003.19
2017-05-13T04:11:21.516Z,1003.18
2017-05-13T04:12:31.126Z,1003.26
2017-05-13T04:13:41.046Z,1003.25
2017-05-13T04:14:50.966Z,1003.28
2017-05-13T04:16:00.683Z,1003.33
2017-05-13T04:17:10.602Z,1003.32
2017-05-13T04:18:20.225Z,1003.38
2017-05-13T04:19:30.139Z,1003.39
2017-05-13T04:20:39.767Z,1003.4
2017-05-13T04:21:49.828Z,1003.41
2017-05-13T04:23:00.059Z,1003.42
2017-05-13T04:24:09.364Z,1003.43
2017-05-13T04:25:19.634Z,1003.46
2017-05-13T04:26:29.552Z,1003.45
2017-05-13T04:27:40.123Z,1003.47
2017-05-13T04:28:49.735Z,1003.48
2017-05-13T04:29:59.967Z,1003.54
2017-05-13T04:31:09.880Z,1003.56
2017-05-13T04:32:20.104Z,1003.58
2017-05-13T04:33:30.121Z,1003.6
2017-05-13T04:34:40.339Z,1003.6
2017-05-13T04:35:50.554Z,1003.61
2017-05-13T04:37:00.181Z,1003.63
2017-05-13T04:38:10.399Z,1003.68
2017-05-13T04:39:20.469Z,1003.68
2017-05-13T04:40:30.714Z,1003.66
2017-05-13T04:41:40.935Z,1003.7
2017-05-13T04:42:51.149Z,1003.73
2017-05-13T04:44:00.742Z,1003.74
2017-05-13T04:45:10.699Z,1003.78
2017-05-13T04:46:20.926Z,1003.75
2017-05-13T04:47:30.531Z,1003.77
2017-05-13T04:48:40.440Z,1003.82
2017-05-13T04:49:50.662Z,1003.81
2017-05-13T04:51:00.926Z,1003.8
2017-05-13T04:52:10.852Z,1003.82
2017-05-13T04:53:20.458Z,1003.83
2017-05-13T04:54:30.063Z,1003.86
2017-05-13T04:55:40.285Z,1003.87
2017-05-13T04:56:50.654Z,1003.89
2017-05-13T04:58:00.569Z,1003.89
2017-05-13T04:59:10.797Z,1003.88
2017-05-13T05:00:20.425Z,1003.89
2017-05-13T05:01:30.340Z,1003.94
2017-05-13T05:02:39.732Z,1003.93
2017-05-13T05:03:49.659Z,1003.97
2017-05-13T05:04:59.580Z,1003.98
2017-05-13T05:06:09.502Z,1003.97
2017-05-13T05:07:19.734Z,1004.01
2017-05-13T05:08:30.008Z,1004.06
2017-05-13T05:09:40.226Z,1004.04
2017-05-13T05:10:50.453Z,1004.02
2017-05-13T05:12:00.369Z,1004.05
2017-05-13T05:13:10.279Z,1004.02
2017-05-13T05:14:20.500Z,1004.04
2017-05-13T05:15:30.416Z,1004.03
2017-05-13T05:16:40.035Z,1004
2017-05-13T05:17:50.278Z,1004.03
2017-05-13T05:19:00.504Z,1004.05
2017-05-13T05:20:10.657Z,1004.09
2017-05-13T05:21:19.965Z,1004.11
2017-05-13T05:22:30.191Z,1004.14
2017-05-13T05:23:39.796Z,1004.11
2017-05-13T05:24:50.025Z,1004.15
2017-05-13T05:26:00.105Z,1004.11
2017-05-13T05:27:09.707Z,1004.16
2017-05-13T05:28:19.617Z,1004.17
2017-05-13T05:29:29.529Z,1004.18
2017-05-13T05:30:39.463Z,1004.19
2017-05-13T05:31:49.838Z,1004.17
2017-05-13T05:32:59.760Z,1004.18
2017-05-13T05:34:09.674Z,1004.2
2017-05-13T05:35:19.901Z,1004.21
2017-05-13T05:36:30.128Z,1004.21
2017-05-13T05:37:40.720Z,1004.21
2017-05-13T05:38:50.642Z,1004.22
2017-05-13T05:40:00.871Z,1004.21
2017-05-13T05:41:10.787Z,1004.24
2017-05-13T05:42:20.699Z,1004.26
2017-05-13T05:43:30.984Z,1004.23
2017-05-13T05:44:40.950Z,1004.3
2017-05-13T05:45:50.864Z,1004.28
2017-05-13T05:47:00.792Z,1004.35
2017-05-13T05:48:11.032Z,1004.35
2017-05-13T05:49:21.201Z,1004.41
2017-05-13T05:50:57.095Z,1004.37
2017-05-13T05:52:06.695Z,1004.33
2017-05-13T05:53:16.306Z,1004.37
2017-05-13T05:54:26.670Z,1004.33
2017-05-13T05:55:35.972Z,1004.33
2017-05-13T05:56:45.886Z,1004.35
2017-05-13T05:57:55.489Z,1004.37
2017-05-13T05:59:05.400Z,1004.39
2017-05-13T06:00:14.842Z,1004.39
2017-05-13T06:01:24.751Z,1004.39
2017-05-13T06:02:34.992Z,1004.43
2017-05-13T06:03:44.602Z,1004.46
2017-05-13T06:04:54.525Z,1004.46
2017-05-13T06:06:04.593Z,1004.45
2017-05-13T06:07:14.225Z,1004.48
2017-05-13T06:08:24.160Z,1004.43
2017-05-13T06:09:34.370Z,1004.46
2017-05-13T06:10:43.668Z,1004.49
2017-05-13T06:11:53.119Z,1004.48
2017-05-13T06:13:03.032Z,1004.5
2017-05-13T06:14:12.941Z,1004.52
2017-05-13T06:15:22.555Z,1004.56
2017-05-13T06:16:32.175Z,1004.6
2017-05-13T06:17:42.542Z,1004.59
2017-05-13T06:18:52.448Z,1004.6
2017-05-13T06:20:02.685Z,1004.59
2017-05-13T06:21:12.595Z,1004.63
2017-05-13T06:22:21.947Z,1004.66
2017-05-13T06:23:31.401Z,1004.65
2017-05-13T06:24:41.318Z,1004.69
2017-05-13T06:25:51.244Z,1004.72
2017-05-13T06:27:01.169Z,1004.7
2017-05-13T06:28:11.389Z,1004.69
2017-05-13T06:29:21.147Z,1004.73
2017-05-13T06:30:31.374Z,1004.71
2017-05-13T06:31:41.594Z,1004.77
2017-05-13T06:32:51.840Z,1004.75
2017-05-13T06:34:02.071Z,1004.75
2017-05-13T06:35:11.833Z,1004.75
2017-05-13T06:36:21.748Z,1004.75
2017-05-13T06:37:31.352Z,1004.74
2017-05-13T06:38:41.628Z,1004.77
2017-05-13T06:39:51.859Z,1004.77
2017-05-13T06:41:01.923Z,1004.74
2017-05-13T06:42:12.158Z,1004.76
2017-05-13T06:43:21.759Z,1004.79
2017-05-13T06:44:31.691Z,1004.78
2017-05-13T06:45:41.051Z,1004.77
2017-05-13T06:46:50.500Z,1004.76
2017-05-13T06:48:00.441Z,1004.76
2017-05-13T06:49:10.043Z,1004.84
2017-05-13T06:50:19.351Z,1004.83
2017-05-13T06:51:29.266Z,1004.88
2017-05-13T06:52:39.640Z,1004.88
2017-05-13T06:53:49.883Z,1004.89
2017-05-13T06:55:00.101Z,1004.87
2017-05-13T06:56:09.699Z,1004.92
2017-05-13T06:57:19.613Z,1004.96
2017-05-13T06:58:29.627Z,1004.97
2017-05-13T06:59:39.236Z,1005.05
2017-05-13T07:00:49.446Z,1005.03
2017-05-13T07:01:59.046Z,1005.05
2017-05-13T07:03:08.967Z,1005.02
2017-05-13T07:04:19.294Z,1005.07
2017-05-13T07:05:29.522Z,1005.09
2017-05-13T07:06:39.769Z,1005.13
2017-05-13T07:07:49.688Z,1005.16
2017-05-13T07:08:59.909Z,1005.18
2017-05-13T07:10:09.933Z,1005.22
2017-05-13T07:11:19.850Z,1005.24
2017-05-13T07:12:29.766Z,1005.19
2017-05-13T07:13:39.387Z,1005.17
2017-05-13T07:14:49.030Z,1005.22
2017-05-13T07:15:59.273Z,1005.2
2017-05-13T07:17:09.536Z,1005.21
2017-05-13T07:18:19.454Z,1005.21
2017-05-13T07:19:29.354Z,1005.24
2017-05-13T07:20:38.972Z,1005.25
2017-05-13T07:21:49.020Z,1005.3
2017-05-13T07:22:59.264Z,1005.3
2017-05-13T07:24:08.920Z,1005.32
2017-05-13T07:25:19.145Z,1005.36
2017-05-13T07:26:29.382Z,1005.31
2017-05-13T07:27:39.471Z,1005.37
2017-05-13T07:28:49.709Z,1005.34
2017-05-13T07:29:59.655Z,1005.34
2017-05-13T07:31:09.623Z,1005.35
2017-05-13T07:32:18.316Z,1005.39
2017-05-13T07:33:28.703Z,1005.45
2017-05-13T07:34:38.935Z,1005.42
2017-05-13T07:35:48.555Z,1005.44
2017-05-13T07:36:58.795Z,1005.48
2017-05-13T07:38:09.053Z,1005.44
2017-05-13T07:39:18.838Z,1005.49
2017-05-13T07:40:28.466Z,1005.51
2017-05-13T07:41:38.713Z,1005.52
2017-05-13T07:42:47.729Z,1005.51
2017-05-13T07:43:57.957Z,1005.55
2017-05-13T07:45:07.735Z,1005.59
2017-05-13T07:46:17.366Z,1005.6
2017-05-13T07:47:27.614Z,1005.62
2017-05-13T07:48:37.531Z,1005.65
2017-05-13T07:49:47.452Z,1005.61
2017-05-13T07:50:57.528Z,1005.68
2017-05-13T07:52:07.781Z,1005.67
2017-05-13T07:53:17.709Z,1005.7
2017-05-13T07:54:27.646Z,1005.75
2017-05-13T07:55:37.578Z,1005.74
2017-05-13T07:56:47.357Z,1005.77
2017-05-13T07:57:57.282Z,1005.81
2017-05-13T07:59:07.233Z,1005.75
2017-05-13T08:00:17.489Z,1005.78
2017-05-13T08:01:27.428Z,1005.81
2017-05-13T08:02:37.523Z,1005.82
2017-05-13T08:03:47.752Z,1005.77
2017-05-13T08:04:58.000Z,1005.77
2017-05-13T08:06:07.635Z,1005.74
2017-05-13T08:07:17.266Z,1005.74
2017-05-13T08:08:27.031Z,1005.75
2017-05-13T08:09:36.030Z,1005.74
2017-05-13T08:10:46.270Z,1005.77
2017-05-13T08:11:56.187Z,1005.77
2017-05-13T08:13:06.128Z,1005.8
2017-05-13T08:14:16.194Z,1005.82
2017-05-13T08:15:25.836Z,1005.79
2017-05-13T08:16:36.067Z,1005.8
2017-05-13T08:17:45.985Z,1005.81
2017-05-13T08:18:55.936Z,1005.85
2017-05-13T08:20:06.028Z,1005.84
2017-05-13T08:21:15.363Z,1005.89
2017-05-13T08:22:25.287Z,1005.92
2017-05-13T08:23:35.298Z,1005.92
2017-05-13T08:24:45.545Z,1005.89
2017-05-13T08:25:55.734Z,1005.91
2017-05-13T08:27:05.983Z,1005.93
2017-05-13T08:28:15.905Z,1005.97
2017-05-13T08:29:25.279Z,1005.98
2017-05-13T08:30:34.886Z,1006
2017-05-13T08:31:44.952Z,1006.03
2017-05-13T08:32:55.188Z,1006.04
2017-05-13T08:34:04.502Z,1006.04
2017-05-13T08:35:14.415Z,1005.98
2017-05-13T08:36:24.037Z,1006.03
2017-05-13T08:37:34.449Z,1006.06
2017-05-13T08:38:44.369Z,1006.06
2017-05-13T08:39:54.596Z,1006.03
2017-05-13T08:41:03.906Z,1006.07
2017-05-13T08:42:13.838Z,1006.1
2017-05-13T08:43:24.219Z,1006.06
2017-05-13T08:44:33.835Z,1006.08
2017-05-13T08:45:43.753Z,1006.09
2017-05-13T08:46:52.756Z,1006.12
2017-05-13T08:48:02.674Z,1006.09
2017-05-13T08:49:12.588Z,1006.09
2017-05-13T08:50:22.505Z,1006.15
2017-05-13T08:51:32.913Z,1006.11
2017-05-13T08:52:42.541Z,1006.14
2017-05-13T08:53:52.552Z,1006.16
2017-05-13T08:55:03.229Z,1006.14
2017-05-13T08:56:13.170Z,1006.14
2017-05-13T08:57:23.388Z,1006.2
2017-05-13T08:58:33.325Z,1006.2
2017-05-13T08:59:42.945Z,1006.22
2017-05-13T09:00:52.986Z,1006.22
2017-05-13T09:02:02.907Z,1006.24
2017-05-13T09:03:12.823Z,1006.26
2017-05-13T09:04:22.746Z,1006.24
2017-05-13T09:05:32.065Z,1006.28
2017-05-13T09:06:42.222Z,1006.29
2017-05-13T09:07:52.136Z,1006.28
2017-05-13T09:09:02.385Z,1006.29
2017-05-13T09:10:12.140Z,1006.33
2017-05-13T09:11:22.760Z,1006.35
2017-05-13T09:12:32.796Z,1006.4
2017-05-13T09:13:43.026Z,1006.4
2017-05-13T09:14:53.001Z,1006.35
2017-05-13T09:16:02.352Z,1006.36
2017-05-13T09:17:11.967Z,1006.37
2017-05-13T09:18:21.687Z,1006.37
2017-05-13T09:19:31.916Z,1006.39
2017-05-13T09:20:41.855Z,1006.36
2017-05-13T09:21:51.476Z,1006.47
2017-05-13T09:23:01.135Z,1006.45
2017-05-13T09:24:10.854Z,1006.47
2017-05-13T09:25:21.072Z,1006.38
2017-05-13T09:26:30.680Z,1006.45
2017-05-13T09:27:40.313Z,1006.42
2017-05-13T09:28:49.610Z,1006.41
2017-05-13T09:29:59.977Z,1006.44
2017-05-13T09:31:10.200Z,1006.41
2017-05-13T09:32:19.810Z,1006.38
2017-05-13T09:33:29.717Z,1006.39
2017-05-13T09:34:39.942Z,1006.37
2017-05-13T09:35:49.388Z,1006.36
2017-05-13T09:36:58.689Z,1006.38
2017-05-13T09:38:08.913Z,1006.42
2017-05-13T09:39:18.512Z,1006.43
2017-05-13T09:40:28.432Z,1006.38
2017-05-13T09:41:38.498Z,1006.36
2017-05-13T09:42:48.709Z,1006.34
2017-05-13T09:43:58.303Z,1006.35
2017-05-13T09:45:08.212Z,1006.36
2017-05-13T09:46:17.818Z,1006.35
2017-05-13T09:47:27.930Z,1006.36
2017-05-13T09:48:37.844Z,1006.36
2017-05-13T09:49:48.056Z,1006.37
2017-05-13T09:50:57.969Z,1006.34
2017-05-13T09:52:08.191Z,1006.35
2017-05-13T09:53:17.644Z,1006.35
2017-05-13T09:54:27.853Z,1006.32
2017-05-13T09:55:37.756Z,1006.31
2017-05-13T09:56:47.689Z,1006.34
2017-05-13T09:57:57.294Z,1006.35
2017-05-13T09:59:06.752Z,1006.36
2017-05-13T10:00:16.685Z,1006.38
2017-05-13T10:01:26.601Z,1006.35
2017-05-13T10:02:36.811Z,1006.4
2017-05-13T10:03:46.411Z,1006.38
2017-05-13T10:04:56.475Z,1006.38
2017-05-13T10:06:06.389Z,1006.38
2017-05-13T10:07:16.620Z,1006.39
2017-05-13T10:08:26.220Z,1006.35
2017-05-13T10:09:36.157Z,1006.38
2017-05-13T10:10:46.234Z,1006.36
2017-05-13T10:11:56.144Z,1006.4
2017-05-13T10:13:06.120Z,1006.42
2017-05-13T10:14:16.049Z,1006.41
2017-05-13T10:15:25.961Z,1006.39
2017-05-13T10:16:35.720Z,1006.38
2017-05-13T10:17:45.321Z,1006.38
2017-05-13T10:18:54.922Z,1006.43
2017-05-13T10:20:04.851Z,1006.41
2017-05-13T10:21:14.468Z,1006.44
2017-05-13T10:22:24.841Z,1006.44
2017-05-13T10:23:35.071Z,1006.43
2017-05-13T10:24:45.298Z,1006.47
2017-05-13T10:25:54.902Z,1006.43
2017-05-13T10:27:05.128Z,1006.42
2017-05-13T10:28:15.496Z,1006.41
2017-05-13T10:29:25.402Z,1006.42
2017-05-13T10:30:35.322Z,1006.41
2017-05-13T10:31:45.544Z,1006.43
2017-05-13T10:32:55.451Z,1006.37
2017-05-13T10:34:05.199Z,1006.4
2017-05-13T10:35:14.503Z,1006.37
2017-05-13T10:36:24.120Z,1006.32
2017-05-13T10:37:34.035Z,1006.33
2017-05-13T10:38:43.988Z,1006.34
2017-05-13T10:39:54.044Z,1006.37
2017-05-13T10:41:03.635Z,1006.4
2017-05-13T10:42:13.855Z,1006.44
2017-05-13T10:43:23.448Z,1006.38
2017-05-13T10:44:33.686Z,1006.33
2017-05-13T10:45:44.062Z,1006.34
2017-05-13T10:46:53.977Z,1006.35
2017-05-13T10:48:03.880Z,1006.36
2017-05-13T10:49:13.479Z,1006.41
2017-05-13T10:50:23.383Z,1006.39
2017-05-13T10:51:33.452Z,1006.4
2017-05-13T10:52:43.725Z,1006.41
2017-05-13T10:53:53.632Z,1006.41
2017-05-13T10:55:03.861Z,1006.46
2017-05-13T10:56:13.784Z,1006.5
2017-05-13T10:57:24.158Z,1006.49
2017-05-13T10:58:34.381Z,1006.49
2017-05-13T10:59:44.303Z,1006.5
2017-05-13T11:00:53.619Z,1006.47
2017-05-13T11:02:03.830Z,1006.48
2017-05-13T11:03:13.529Z,1006.46
2017-05-13T11:04:23.754Z,1006.48
2017-05-13T11:05:33.378Z,1006.49
2017-05-13T11:06:43.603Z,1006.44
2017-05-13T11:07:53.837Z,1006.45
2017-05-13T11:09:03.875Z,1006.45
2017-05-13T11:10:13.782Z,1006.48
2017-05-13T11:11:23.693Z,1006.46
2017-05-13T11:12:33.292Z,1006.44
2017-05-13T11:13:42.596Z,1006.46
2017-05-13T11:14:53.009Z,1006.56
2017-05-13T11:16:03.230Z,1006.54
2017-05-13T11:17:13.501Z,1006.58
2017-05-13T11:18:23.416Z,1006.58
2017-05-13T11:19:33.064Z,1006.54
2017-05-13T11:20:42.788Z,1006.56
2017-05-13T11:21:53.001Z,1006.54
2017-05-13T11:23:02.956Z,1006.58
2017-05-13T11:24:13.167Z,1006.57
2017-05-13T11:25:23.369Z,1006.62
2017-05-13T11:26:33.379Z,1006.6
2017-05-13T11:27:43.027Z,1006.63
2017-05-13T11:28:53.245Z,1006.67
2017-05-13T11:30:03.455Z,1006.63
2017-05-13T11:31:12.761Z,1006.59
2017-05-13T11:32:22.814Z,1006.6
2017-05-13T11:33:33.035Z,1006.56
2017-05-13T11:34:42.345Z,1006.57
2017-05-13T11:35:52.243Z,1006.55
2017-05-13T11:37:02.155Z,1006.54
2017-05-13T11:38:12.238Z,1006.54
2017-05-13T11:39:21.839Z,1006.54
2017-05-13T11:40:31.444Z,1006.55
2017-05-13T11:41:41.370Z,1006.54
2017-05-13T11:42:51.287Z,1006.55
2017-05-13T11:44:01.341Z,1006.53
2017-05-13T11:45:11.562Z,1006.55
2017-05-13T11:46:21.783Z,1006.53
2017-05-13T11:47:32.005Z,1006.54
2017-05-13T11:48:41.604Z,1006.47
2017-05-13T11:52:23.718Z,1006.43
2017-05-13T11:53:33.630Z,1006.45
2017-05-13T11:54:43.549Z,1006.49
2017-05-13T11:55:52.594Z,1006.47
2017-05-13T11:57:02.522Z,1006.5
2017-05-13T11:58:12.003Z,1006.52
2017-05-13T11:59:21.913Z,1006.52
2017-05-13T12:00:31.912Z,1006.55
2017-05-13T12:01:41.828Z,1006.59
2017-05-13T12:02:51.734Z,1006.58
2017-05-13T12:04:02.091Z,1006.55
2017-05-13T12:05:11.998Z,1006.57
2017-05-13T12:06:21.616Z,1006.55
2017-05-13T12:07:31.247Z,1006.58
2017-05-13T12:08:41.470Z,1006.53
2017-05-13T12:09:51.545Z,1006.52
2017-05-13T12:11:01.756Z,1006.55
2017-05-13T12:12:11.663Z,1006.49
2017-05-13T12:13:21.869Z,1006.47
2017-05-13T12:14:31.471Z,1006.47
2017-05-13T12:15:41.231Z,1006.42
2017-05-13T12:16:50.229Z,1006.55
2017-05-13T12:18:00.197Z,1006.55
2017-05-13T12:19:10.418Z,1006.62
2017-05-13T12:20:20.368Z,1006.63
2017-05-13T12:21:30.426Z,1006.69
2017-05-13T12:22:40.021Z,1006.65
2017-05-13T12:23:49.932Z,1006.64
2017-05-13T12:25:00.148Z,1006.71
2017-05-13T12:26:10.047Z,1006.7
2017-05-13T12:27:20.109Z,1006.68
2017-05-13T12:28:30.037Z,1006.73
2017-05-13T12:29:39.662Z,1006.72
2017-05-13T12:30:49.575Z,1006.64
2017-05-13T12:31:59.250Z,1006.7
2017-05-13T12:33:09.021Z,1006.68
2017-05-13T12:34:18.938Z,1006.71
2017-05-13T12:35:29.149Z,1006.67
2017-05-13T12:36:39.061Z,1006.69
2017-05-13T12:37:48.670Z,1006.69
2017-05-13T12:38:59.045Z,1006.7
2017-05-13T12:40:08.969Z,1006.7
2017-05-13T12:41:18.585Z,1006.69
2017-05-13T12:42:28.208Z,1006.66
2017-05-13T12:43:38.114Z,1006.61
2017-05-13T12:44:48.584Z,1006.67
2017-05-13T12:45:58.803Z,1006.64
2017-05-13T12:47:08.719Z,1006.62
2017-05-13T12:48:18.632Z,1006.58
2017-05-13T12:49:28.540Z,1006.56
2017-05-13T12:50:37.987Z,1006.62
2017-05-13T12:51:47.293Z,1006.61
2017-05-13T12:52:57.501Z,1006.59
2017-05-13T12:54:07.716Z,1006.66
2017-05-13T12:55:17.635Z,1006.62
2017-05-13T12:56:28.005Z,1006.66
2017-05-13T12:57:38.224Z,1006.65
2017-05-13T12:58:47.512Z,1006.65
2017-05-13T12:59:57.127Z,1006.61
2017-05-13T13:01:07.033Z,1006.62
2017-05-13T13:02:17.058Z,1006.6
2017-05-13T13:03:27.268Z,1006.63
2017-05-13T13:04:37.493Z,1006.6
2017-05-13T13:05:47.708Z,1006.55
2017-05-13T13:06:57.921Z,1006.59
2017-05-13T13:08:07.942Z,1006.54
2017-05-13T13:09:17.874Z,1006.59
2017-05-13T13:10:27.473Z,1006.59
2017-05-13T13:11:37.080Z,1006.6
2017-05-13T13:12:46.675Z,1006.58
2017-05-13T13:13:56.686Z,1006.59
2017-05-13T13:15:06.893Z,1006.61
2017-05-13T13:16:16.809Z,1006.62
2017-05-13T13:17:26.414Z,1006.59
2017-05-13T13:18:36.022Z,1006.58
2017-05-13T13:19:46.037Z,1006.66
2017-05-13T13:20:55.643Z,1006.63
2017-05-13T13:22:05.867Z,1006.65
2017-05-13T13:23:15.167Z,1006.57
2017-05-13T13:24:25.073Z,1006.57
2017-05-13T13:25:35.113Z,1006.53
2017-05-13T13:26:44.729Z,1006.56
2017-05-13T13:27:54.665Z,1006.5
2017-05-13T13:29:04.269Z,1006.51
2017-05-13T13:30:14.183Z,1006.54
2017-05-13T13:31:23.939Z,1006.54
2017-05-13T13:32:33.546Z,1006.54
2017-05-13T13:33:42.532Z,1006.58
2017-05-13T13:34:52.438Z,1006.54
2017-05-13T13:36:02.351Z,1006.54
2017-05-13T13:37:12.117Z,1006.53
2017-05-13T13:38:22.053Z,1006.5
2017-05-13T13:39:31.657Z,1006.53
2017-05-13T13:40:41.266Z,1006.53
2017-05-13T13:41:50.561Z,1006.49
2017-05-13T13:43:00.627Z,1006.5
2017-05-13T13:44:09.925Z,1006.52
2017-05-13T13:45:20.144Z,1006.5
2017-05-13T13:46:29.757Z,1006.51
2017-05-13T13:47:39.676Z,1006.55
2017-05-13T13:48:49.745Z,1006.54
2017-05-13T13:49:59.962Z,1006.54
2017-05-13T13:51:10.184Z,1006.52
2017-05-13T13:52:19.791Z,1006.54
2017-05-13T13:53:30.003Z,1006.54
2017-05-13T13:54:39.448Z,1006.55
2017-05-13T13:55:48.444Z,1006.58
2017-05-13T13:56:58.377Z,1006.63
2017-05-13T13:58:08.285Z,1006.63
2017-05-13T13:59:18.239Z,1006.68
2017-05-13T14:00:28.363Z,1006.7
2017-05-13T14:01:38.005Z,1006.7
2017-05-13T14:02:47.936Z,1006.71
2017-05-13T14:03:57.849Z,1006.73
2017-05-13T14:05:07.767Z,1006.69
2017-05-13T14:06:17.536Z,1006.66
2017-05-13T14:07:27.755Z,1006.63
2017-05-13T14:08:37.358Z,1006.64
2017-05-13T14:09:47.569Z,1006.61
2017-05-13T14:10:56.877Z,1006.57
2017-05-13T14:12:06.948Z,1006.53
2017-05-13T14:13:16.567Z,1006.49
2017-05-13T14:14:26.485Z,1006.49